sensor_id;sensor_type;location;lat;lon;timestamp;temperature;humidity
30288;DHT22;17103;48.316;11.558;2022-09-09T00:04:16;22.40;43.90
30288;DHT22;17103;48.316;11.558;2022-09-09T00:07:13;22.40;43.80
30288;DHT22;17103;48.316;11.558;2022-09-09T00:10:09;22.40;43.90
30288;DHT22;17103;48.316;11.558;2022-09-09T00:15:40;22.40;43.90
30288;DHT22;17103;48.316;11.558;2022-09-09T00:18:47;22.30;43.90
30288;DHT22;17103;48.316;11.558;2022-09-09T00:21:16;22.30;43.80
30288;DHT22;17103;48.316;11.558;2022-09-09T00:23:50;22.30;44.10
30288;DHT22;17103;48.316;11.558;2022-09-09T00:28:56;22.20;44.10
30288;DHT22;17103;48.316;11.558;2022-09-09T00:31:27;22.20;44.30
30288;DHT22;17103;48.316;11.558;2022-09-09T00:33:55;22.20;44.20
30288;DHT22;17103;48.316;11.558;2022-09-09T00:36:26;22.20;44.30
30288;DHT22;17103;48.316;11.558;2022-09-09T00:39:00;22.20;44.30
30288;DHT22;17103;48.316;11.558;2022-09-09T00:44:17;22.20;44.50
30288;DHT22;17103;48.316;11.558;2022-09-09T00:47:24;22.20;44.40
30288;DHT22;17103;48.316;11.558;2022-09-09T00:53:26;22.20;44.50
30288;DHT22;17103;48.316;11.558;2022-09-09T00:56:02;22.20;44.60
30288;DHT22;17103;48.316;11.558;2022-09-09T00:58:31;22.20;44.50
30288;DHT22;17103;48.316;11.558;2022-09-09T01:03:36;22.20;44.40
30288;DHT22;17103;48.316;11.558;2022-09-09T01:09:10;22.20;44.40
30288;DHT22;17103;48.316;11.558;2022-09-09T01:17:23;22.10;44.20
30288;DHT22;17103;48.316;11.558;2022-09-09T01:20:13;22.10;44.30
30288;DHT22;17103;48.316;11.558;2022-09-09T01:28:10;22.10;44.40
30288;DHT22;17103;48.316;11.558;2022-09-09T01:30:39;22.10;44.90
30288;DHT22;17103;48.316;11.558;2022-09-09T01:33:12;22.10;44.40
30288;DHT22;17103;48.316;11.558;2022-09-09T01:35:57;22.00;44.30
30288;DHT22;17103;48.316;11.558;2022-09-09T01:38:26;22.00;44.70
30288;DHT22;17103;48.316;11.558;2022-09-09T01:40:53;22.00;44.50
30288;DHT22;17103;48.316;11.558;2022-09-09T01:43:22;22.00;44.60
30288;DHT22;17103;48.316;11.558;2022-09-09T01:45:52;22.00;44.60
30288;DHT22;17103;48.316;11.558;2022-09-09T01:48:21;22.00;44.60
30288;DHT22;17103;48.316;11.558;2022-09-09T01:50:48;22.00;44.50
30288;DHT22;17103;48.316;11.558;2022-09-09T01:53:15;21.90;44.40
30288;DHT22;17103;48.316;11.558;2022-09-09T01:55:59;21.90;44.50
30288;DHT22;17103;48.316;11.558;2022-09-09T02:04:31;21.80;44.80
30288;DHT22;17103;48.316;11.558;2022-09-09T02:10:05;21.70;45.00
30288;DHT22;17103;48.316;11.558;2022-09-09T02:12:34;21.70;45.10
30288;DHT22;17103;48.316;11.558;2022-09-09T02:15:07;21.70;45.10
30288;DHT22;17103;48.316;11.558;2022-09-09T02:17:38;21.70;45.20
30288;DHT22;17103;48.316;11.558;2022-09-09T02:20:09;21.70;45.10
30288;DHT22;17103;48.316;11.558;2022-09-09T02:22:38;21.80;45.20
30288;DHT22;17103;48.316;11.558;2022-09-09T02:25:06;21.80;45.20
30288;DHT22;17103;48.316;11.558;2022-09-09T02:27:33;21.80;45.20
30288;DHT22;17103;48.316;11.558;2022-09-09T02:30:00;21.80;45.20
30288;DHT22;17103;48.316;11.558;2022-09-09T02:32:29;21.80;45.20
30288;DHT22;17103;48.316;11.558;2022-09-09T02:35:02;21.80;45.20
30288;DHT22;17103;48.316;11.558;2022-09-09T02:37:37;21.80;45.20
30288;DHT22;17103;48.316;11.558;2022-09-09T02:40:09;21.80;45.20
30288;DHT22;17103;48.316;11.558;2022-09-09T02:42:49;21.80;45.20
30288;DHT22;17103;48.316;11.558;2022-09-09T02:45:27;21.90;45.30
30288;DHT22;17103;48.316;11.558;2022-09-09T02:48:03;21.90;45.30
30288;DHT22;17103;48.316;11.558;2022-09-09T02:50:34;21.90;45.80
30288;DHT22;17103;48.316;11.558;2022-09-09T02:53:17;21.90;45.20
30288;DHT22;17103;48.316;11.558;2022-09-09T02:58:14;21.90;45.30
30288;DHT22;17103;48.316;11.558;2022-09-09T03:00:43;21.90;45.20
30288;DHT22;17103;48.316;11.558;2022-09-09T03:03:10;21.90;45.20
30288;DHT22;17103;48.316;11.558;2022-09-09T03:05:37;21.90;45.20
30288;DHT22;17103;48.316;11.558;2022-09-09T03:08:04;21.90;45.20
30288;DHT22;17103;48.316;11.558;2022-09-09T03:10:32;21.90;45.20
30288;DHT22;17103;48.316;11.558;2022-09-09T03:12:57;21.90;45.20
30288;DHT22;17103;48.316;11.558;2022-09-09T03:15:23;21.90;45.20
30288;DHT22;17103;48.316;11.558;2022-09-09T03:17:49;21.90;45.30
30288;DHT22;17103;48.316;11.558;2022-09-09T03:20:15;21.90;45.30
30288;DHT22;17103;48.316;11.558;2022-09-09T03:22:40;21.90;45.30
30288;DHT22;17103;48.316;11.558;2022-09-09T03:25:06;21.90;45.40
30288;DHT22;17103;48.316;11.558;2022-09-09T03:27:32;21.90;45.40
30288;DHT22;17103;48.316;11.558;2022-09-09T03:29:58;22.00;45.50
30288;DHT22;17103;48.316;11.558;2022-09-09T03:32:24;21.90;45.40
30288;DHT22;17103;48.316;11.558;2022-09-09T03:34:51;21.90;45.40
30288;DHT22;17103;48.316;11.558;2022-09-09T03:37:18;21.90;45.50
30288;DHT22;17103;48.316;11.558;2022-09-09T03:39:44;21.90;45.50
30288;DHT22;17103;48.316;11.558;2022-09-09T03:42:12;21.90;45.50
30288;DHT22;17103;48.316;11.558;2022-09-09T03:44:40;21.90;45.50
30288;DHT22;17103;48.316;11.558;2022-09-09T03:47:07;21.90;45.50
30288;DHT22;17103;48.316;11.558;2022-09-09T03:49:33;21.90;45.50
30288;DHT22;17103;48.316;11.558;2022-09-09T03:51:58;21.90;45.50
30288;DHT22;17103;48.316;11.558;2022-09-09T03:54:25;21.90;45.60
30288;DHT22;17103;48.316;11.558;2022-09-09T03:56:51;21.90;45.60
30288;DHT22;17103;48.316;11.558;2022-09-09T03:59:17;21.90;45.60
30288;DHT22;17103;48.316;11.558;2022-09-09T04:01:43;21.90;45.60
30288;DHT22;17103;48.316;11.558;2022-09-09T04:04:10;21.90;45.60
30288;DHT22;17103;48.316;11.558;2022-09-09T04:06:37;21.90;45.70
30288;DHT22;17103;48.316;11.558;2022-09-09T04:09:03;21.90;45.70
30288;DHT22;17103;48.316;11.558;2022-09-09T04:11:29;22.00;46.30
30288;DHT22;17103;48.316;11.558;2022-09-09T04:13:54;21.90;45.70
30288;DHT22;17103;48.316;11.558;2022-09-09T04:16:20;21.90;45.70
30288;DHT22;17103;48.316;11.558;2022-09-09T04:18:46;21.90;46.30
30288;DHT22;17103;48.316;11.558;2022-09-09T04:21:12;21.90;45.70
30288;DHT22;17103;48.316;11.558;2022-09-09T04:23:38;21.90;45.80
30288;DHT22;17103;48.316;11.558;2022-09-09T04:26:04;21.90;45.80
30288;DHT22;17103;48.316;11.558;2022-09-09T04:28:33;21.90;45.80
30288;DHT22;17103;48.316;11.558;2022-09-09T04:31:14;21.90;45.60
30288;DHT22;17103;48.316;11.558;2022-09-09T04:33:40;21.90;45.90
30288;DHT22;17103;48.316;11.558;2022-09-09T04:36:07;21.90;45.90
30288;DHT22;17103;48.316;11.558;2022-09-09T04:38:33;21.90;45.90
30288;DHT22;17103;48.316;11.558;2022-09-09T04:40:58;21.90;46.00
30288;DHT22;17103;48.316;11.558;2022-09-09T04:43:24;21.90;46.00
30288;DHT22;17103;48.316;11.558;2022-09-09T04:45:53;21.80;45.90
30288;DHT22;17103;48.316;11.558;2022-09-09T04:48:20;21.90;46.00
30288;DHT22;17103;48.316;11.558;2022-09-09T04:51:01;21.90;46.10
30288;DHT22;17103;48.316;11.558;2022-09-09T04:53:28;21.90;46.20
30288;DHT22;17103;48.316;11.558;2022-09-09T04:56:02;22.00;46.20
30288;DHT22;17103;48.316;11.558;2022-09-09T04:58:28;22.00;46.30
30288;DHT22;17103;48.316;11.558;2022-09-09T05:00:53;22.00;46.20
30288;DHT22;17103;48.316;11.558;2022-09-09T05:03:19;22.00;46.20
30288;DHT22;17103;48.316;11.558;2022-09-09T05:05:45;22.00;46.20
30288;DHT22;17103;48.316;11.558;2022-09-09T05:08:10;22.00;46.20
30288;DHT22;17103;48.316;11.558;2022-09-09T05:10:38;22.00;46.20
30288;DHT22;17103;48.316;11.558;2022-09-09T05:13:04;22.00;46.20
30288;DHT22;17103;48.316;11.558;2022-09-09T05:15:30;22.00;46.20
30288;DHT22;17103;48.316;11.558;2022-09-09T05:18:00;22.00;46.20
30288;DHT22;17103;48.316;11.558;2022-09-09T05:20:27;22.00;46.40
30288;DHT22;17103;48.316;11.558;2022-09-09T05:22:56;22.00;46.30
30288;DHT22;17103;48.316;11.558;2022-09-09T05:25:22;22.00;46.40
30288;DHT22;17103;48.316;11.558;2022-09-09T05:27:50;22.00;46.40
30288;DHT22;17103;48.316;11.558;2022-09-09T05:30:16;22.00;46.40
30288;DHT22;17103;48.316;11.558;2022-09-09T05:32:44;22.00;46.40
30288;DHT22;17103;48.316;11.558;2022-09-09T05:35:09;22.00;46.40
30288;DHT22;17103;48.316;11.558;2022-09-09T05:37:35;22.10;46.50
30288;DHT22;17103;48.316;11.558;2022-09-09T05:40:01;22.10;46.50
30288;DHT22;17103;48.316;11.558;2022-09-09T05:42:30;22.10;46.50
30288;DHT22;17103;48.316;11.558;2022-09-09T05:44:56;22.10;46.60
30288;DHT22;17103;48.316;11.558;2022-09-09T05:47:23;22.10;46.60
30288;DHT22;17103;48.316;11.558;2022-09-09T05:49:49;22.20;46.70
30288;DHT22;17103;48.316;11.558;2022-09-09T05:52:14;22.10;46.60
30288;DHT22;17103;48.316;11.558;2022-09-09T05:54:40;22.10;46.70
30288;DHT22;17103;48.316;11.558;2022-09-09T05:57:07;22.20;46.80
30288;DHT22;17103;48.316;11.558;2022-09-09T05:59:32;22.10;46.70
30288;DHT22;17103;48.316;11.558;2022-09-09T06:01:58;22.10;46.70
30288;DHT22;17103;48.316;11.558;2022-09-09T06:04:24;22.20;46.80
30288;DHT22;17103;48.316;11.558;2022-09-09T06:06:50;22.30;46.90
30288;DHT22;17103;48.316;11.558;2022-09-09T06:09:16;22.30;47.00
30288;DHT22;17103;48.316;11.558;2022-09-09T06:11:42;22.30;47.00
30288;DHT22;17103;48.316;11.558;2022-09-09T06:14:08;22.40;47.10
30288;DHT22;17103;48.316;11.558;2022-09-09T06:16:34;22.40;47.10
30288;DHT22;17103;48.316;11.558;2022-09-09T06:19:01;22.30;47.00
30288;DHT22;17103;48.316;11.558;2022-09-09T06:21:37;22.40;47.00
30288;DHT22;17103;48.316;11.558;2022-09-09T06:24:03;22.40;47.10
30288;DHT22;17103;48.316;11.558;2022-09-09T06:26:31;22.50;47.00
30288;DHT22;17103;48.316;11.558;2022-09-09T06:28:59;22.50;47.00
30288;DHT22;17103;48.316;11.558;2022-09-09T06:31:26;22.50;47.00
30288;DHT22;17103;48.316;11.558;2022-09-09T06:33:56;22.50;47.00
30288;DHT22;17103;48.316;11.558;2022-09-09T06:36:30;22.60;47.00
30288;DHT22;17103;48.316;11.558;2022-09-09T06:38:57;22.50;46.70
30288;DHT22;17103;48.316;11.558;2022-09-09T06:41:26;22.50;46.60
30288;DHT22;17103;48.316;11.558;2022-09-09T06:43:52;22.60;46.60
30288;DHT22;17103;48.316;11.558;2022-09-09T06:46:20;22.50;46.30
30288;DHT22;17103;48.316;11.558;2022-09-09T06:48:53;22.50;46.60
30288;DHT22;17103;48.316;11.558;2022-09-09T06:51:22;22.50;46.60
30288;DHT22;17103;48.316;11.558;2022-09-09T06:53:51;22.40;46.70
30288;DHT22;17103;48.316;11.558;2022-09-09T06:56:21;22.30;46.80
30288;DHT22;17103;48.316;11.558;2022-09-09T06:58:50;22.10;47.20
30288;DHT22;17103;48.316;11.558;2022-09-09T07:01:19;22.00;47.70
30288;DHT22;17103;48.316;11.558;2022-09-09T07:03:47;21.80;48.00
30288;DHT22;17103;48.316;11.558;2022-09-09T07:06:24;21.60;48.30
30288;DHT22;17103;48.316;11.558;2022-09-09T07:08:55;21.40;49.00
30288;DHT22;17103;48.316;11.558;2022-09-09T07:11:23;21.20;49.20
30288;DHT22;17103;48.316;11.558;2022-09-09T07:13:49;21.20;49.20
30288;DHT22;17103;48.316;11.558;2022-09-09T07:16:17;21.00;49.60
30288;DHT22;17103;48.316;11.558;2022-09-09T07:18:43;20.80;50.20
30288;DHT22;17103;48.316;11.558;2022-09-09T07:21:10;20.70;50.30
30288;DHT22;17103;48.316;11.558;2022-09-09T07:23:37;20.60;50.40
30288;DHT22;17103;48.316;11.558;2022-09-09T07:26:09;20.50;50.70
30288;DHT22;17103;48.316;11.558;2022-09-09T07:28:35;20.50;51.10
30288;DHT22;17103;48.316;11.558;2022-09-09T07:31:01;20.30;50.70
30288;DHT22;17103;48.316;11.558;2022-09-09T07:33:31;20.30;50.80
30288;DHT22;17103;48.316;11.558;2022-09-09T07:36:10;20.30;51.10
30288;DHT22;17103;48.316;11.558;2022-09-09T07:38:47;20.20;51.20
30288;DHT22;17103;48.316;11.558;2022-09-09T07:41:16;20.30;51.70
30288;DHT22;17103;48.316;11.558;2022-09-09T07:43:44;20.40;51.80
30288;DHT22;17103;48.316;11.558;2022-09-09T07:46:12;20.30;51.70
30288;DHT22;17103;48.316;11.558;2022-09-09T07:48:43;20.40;51.90
30288;DHT22;17103;48.316;11.558;2022-09-09T07:51:11;20.50;52.00
30288;DHT22;17103;48.316;11.558;2022-09-09T07:53:38;20.50;52.10
30288;DHT22;17103;48.316;11.558;2022-09-09T07:56:06;20.60;52.00
30288;DHT22;17103;48.316;11.558;2022-09-09T07:58:32;20.60;52.00
30288;DHT22;17103;48.316;11.558;2022-09-09T08:00:58;20.70;52.20
30288;DHT22;17103;48.316;11.558;2022-09-09T08:03:23;20.70;51.90
30288;DHT22;17103;48.316;11.558;2022-09-09T08:05:49;20.80;52.00
30288;DHT22;17103;48.316;11.558;2022-09-09T08:08:15;20.90;52.30
30288;DHT22;17103;48.316;11.558;2022-09-09T08:10:42;20.90;52.40
30288;DHT22;17103;48.316;11.558;2022-09-09T08:13:09;21.00;52.60
30288;DHT22;17103;48.316;11.558;2022-09-09T08:15:34;21.00;52.90
30288;DHT22;17103;48.316;11.558;2022-09-09T08:18:00;20.90;52.40
30288;DHT22;17103;48.316;11.558;2022-09-09T08:20:26;20.90;52.60
30288;DHT22;17103;48.316;11.558;2022-09-09T08:22:52;20.80;52.90
30288;DHT22;17103;48.316;11.558;2022-09-09T08:25:17;20.80;52.90
30288;DHT22;17103;48.316;11.558;2022-09-09T08:27:43;20.80;53.30
30288;DHT22;17103;48.316;11.558;2022-09-09T08:30:09;20.80;53.40
30288;DHT22;17103;48.316;11.558;2022-09-09T08:32:35;20.80;53.30
30288;DHT22;17103;48.316;11.558;2022-09-09T08:35:02;20.80;53.60
30288;DHT22;17103;48.316;11.558;2022-09-09T08:37:28;20.80;53.90
30288;DHT22;17103;48.316;11.558;2022-09-09T08:39:54;20.80;53.80
30288;DHT22;17103;48.316;11.558;2022-09-09T08:42:43;20.70;53.80
30288;DHT22;17103;48.316;11.558;2022-09-09T08:45:14;20.70;54.60
30288;DHT22;17103;48.316;11.558;2022-09-09T08:48:15;20.70;53.90
30288;DHT22;17103;48.316;11.558;2022-09-09T08:50:43;20.70;54.30
30288;DHT22;17103;48.316;11.558;2022-09-09T08:55:48;20.70;53.60
30288;DHT22;17103;48.316;11.558;2022-09-09T08:58:26;20.80;54.20
30288;DHT22;17103;48.316;11.558;2022-09-09T09:06:23;20.90;54.10
30288;DHT22;17103;48.316;11.558;2022-09-09T09:09:08;21.00;54.20
30288;DHT22;17103;48.316;11.558;2022-09-09T09:11:56;21.10;54.20
30288;DHT22;17103;48.316;11.558;2022-09-09T09:14:30;21.10;54.40
30288;DHT22;17103;48.316;11.558;2022-09-09T09:17:19;21.20;54.30
30288;DHT22;17103;48.316;11.558;2022-09-09T09:19:47;21.20;54.80
30288;DHT22;17103;48.316;11.558;2022-09-09T09:22:22;21.30;54.70
30288;DHT22;17103;48.316;11.558;2022-09-09T09:28:00;21.40;54.90
30288;DHT22;17103;48.316;11.558;2022-09-09T09:30:31;21.40;54.70
30288;DHT22;17103;48.316;11.558;2022-09-09T09:33:14;21.50;54.50
30288;DHT22;17103;48.316;11.558;2022-09-09T09:35:40;21.40;54.10
30288;DHT22;17103;48.316;11.558;2022-09-09T09:38:20;21.50;53.90
30288;DHT22;17103;48.316;11.558;2022-09-09T09:40:55;21.50;54.20
30288;DHT22;17103;48.316;11.558;2022-09-09T09:43:30;21.50;54.60
30288;DHT22;17103;48.316;11.558;2022-09-09T09:45:58;21.60;53.50
30288;DHT22;17103;48.316;11.558;2022-09-09T09:48:25;21.70;53.40
30288;DHT22;17103;48.316;11.558;2022-09-09T09:50:58;21.60;53.20
30288;DHT22;17103;48.316;11.558;2022-09-09T09:53:33;21.70;53.20
30288;DHT22;17103;48.316;11.558;2022-09-09T09:56:02;21.70;53.20
30288;DHT22;17103;48.316;11.558;2022-09-09T09:58:31;21.70;53.30
30288;DHT22;17103;48.316;11.558;2022-09-09T10:01:00;21.70;53.60
30288;DHT22;17103;48.316;11.558;2022-09-09T10:03:31;21.70;53.50
30288;DHT22;17103;48.316;11.558;2022-09-09T10:05:57;21.70;53.80
30288;DHT22;17103;48.316;11.558;2022-09-09T10:08:27;21.80;53.70
30288;DHT22;17103;48.316;11.558;2022-09-09T10:11:14;21.70;54.00
30288;DHT22;17103;48.316;11.558;2022-09-09T10:19:27;21.70;53.90
30288;DHT22;17103;48.316;11.558;2022-09-09T10:28:09;21.80;53.10
30288;DHT22;17103;48.316;11.558;2022-09-09T10:30:50;21.80;53.00
30288;DHT22;17103;48.316;11.558;2022-09-09T10:33:35;21.90;53.40
30288;DHT22;17103;48.316;11.558;2022-09-09T10:36:21;21.90;53.10
30288;DHT22;17103;48.316;11.558;2022-09-09T10:39:00;21.90;53.20
30288;DHT22;17103;48.316;11.558;2022-09-09T10:47:21;22.10;53.50
30288;DHT22;17103;48.316;11.558;2022-09-09T10:50:01;22.10;53.70
30288;DHT22;17103;48.316;11.558;2022-09-09T10:55:33;22.30;53.40
30288;DHT22;17103;48.316;11.558;2022-09-09T10:58:03;22.30;53.70
30288;DHT22;17103;48.316;11.558;2022-09-09T11:00:42;22.40;52.80
30288;DHT22;17103;48.316;11.558;2022-09-09T11:03:26;22.50;52.70
30288;DHT22;17103;48.316;11.558;2022-09-09T11:06:04;22.50;53.00
30288;DHT22;17103;48.316;11.558;2022-09-09T11:08:34;22.50;52.70
30288;DHT22;17103;48.316;11.558;2022-09-09T11:16:34;22.70;52.20
30288;DHT22;17103;48.316;11.558;2022-09-09T11:21:51;22.80;52.00
30288;DHT22;17103;48.316;11.558;2022-09-09T11:24:31;22.90;51.90
30288;DHT22;17103;48.316;11.558;2022-09-09T11:27:08;23.00;51.90
30288;DHT22;17103;48.316;11.558;2022-09-09T11:41:01;23.20;50.20
30288;DHT22;17103;48.316;11.558;2022-09-09T11:43:49;23.20;50.40
30288;DHT22;17103;48.316;11.558;2022-09-09T11:46:20;23.30;50.50
30288;DHT22;17103;48.316;11.558;2022-09-09T11:49:02;23.30;50.20
30288;DHT22;17103;48.316;11.558;2022-09-09T11:51:30;23.30;49.70
30288;DHT22;17103;48.316;11.558;2022-09-09T11:53:58;23.30;50.00
30288;DHT22;17103;48.316;11.558;2022-09-09T11:56:42;23.30;49.90
30288;DHT22;17103;48.316;11.558;2022-09-09T11:59:33;23.30;49.80
30288;DHT22;17103;48.316;11.558;2022-09-09T12:02:18;23.40;49.20
30288;DHT22;17103;48.316;11.558;2022-09-09T12:05:00;23.50;49.80
30288;DHT22;17103;48.316;11.558;2022-09-09T12:07:57;23.60;49.50
30288;DHT22;17103;48.316;11.558;2022-09-09T12:10:29;23.60;49.20
30288;DHT22;17103;48.316;11.558;2022-09-09T12:13:19;23.60;49.00
30288;DHT22;17103;48.316;11.558;2022-09-09T12:15:53;23.60;48.70
30288;DHT22;17103;48.316;11.558;2022-09-09T12:18:36;23.70;48.80
30288;DHT22;17103;48.316;11.558;2022-09-09T12:21:37;23.70;47.80
30288;DHT22;17103;48.316;11.558;2022-09-09T12:24:14;23.70;47.60
30288;DHT22;17103;48.316;11.558;2022-09-09T12:26:59;23.70;47.60
30288;DHT22;17103;48.316;11.558;2022-09-09T12:32:22;23.70;47.10
30288;DHT22;17103;48.316;11.558;2022-09-09T12:35:13;23.70;47.50
30288;DHT22;17103;48.316;11.558;2022-09-09T12:37:51;23.70;47.30
30288;DHT22;17103;48.316;11.558;2022-09-09T12:40:40;23.70;47.30
30288;DHT22;17103;48.316;11.558;2022-09-09T12:43:20;23.80;47.00
30288;DHT22;17103;48.316;11.558;2022-09-09T12:45:47;23.80;46.60
30288;DHT22;17103;48.316;11.558;2022-09-09T12:48:18;23.70;47.00
30288;DHT22;17103;48.316;11.558;2022-09-09T12:50:50;23.80;46.90
30288;DHT22;17103;48.316;11.558;2022-09-09T12:56:04;23.90;46.40
30288;DHT22;17103;48.316;11.558;2022-09-09T12:58:33;23.90;46.40
30288;DHT22;17103;48.316;11.558;2022-09-09T13:01:01;23.90;46.60
30288;DHT22;17103;48.316;11.558;2022-09-09T13:03:30;23.80;46.70
30288;DHT22;17103;48.316;11.558;2022-09-09T13:06:17;24.00;46.90
30288;DHT22;17103;48.316;11.558;2022-09-09T13:08:44;24.00;47.10
30288;DHT22;17103;48.316;11.558;2022-09-09T13:11:14;24.00;47.40
30288;DHT22;17103;48.316;11.558;2022-09-09T13:13:42;24.10;47.60
30288;DHT22;17103;48.316;11.558;2022-09-09T13:16:29;24.20;47.60
30288;DHT22;17103;48.316;11.558;2022-09-09T13:19:09;24.30;46.30
30288;DHT22;17103;48.316;11.558;2022-09-09T13:21:37;24.30;46.10
30288;DHT22;17103;48.316;11.558;2022-09-09T13:24:30;24.40;46.40
30288;DHT22;17103;48.316;11.558;2022-09-09T13:27:03;24.50;46.40
30288;DHT22;17103;48.316;11.558;2022-09-09T13:29:32;24.50;45.40
30288;DHT22;17103;48.316;11.558;2022-09-09T13:32:16;24.50;46.00
30288;DHT22;17103;48.316;11.558;2022-09-09T13:34:55;24.60;45.80
30288;DHT22;17103;48.316;11.558;2022-09-09T13:37:38;24.60;46.30
30288;DHT22;17103;48.316;11.558;2022-09-09T13:40:17;24.60;45.80
30288;DHT22;17103;48.316;11.558;2022-09-09T13:42:44;24.60;45.70
30288;DHT22;17103;48.316;11.558;2022-09-09T13:45:21;24.60;45.80
30288;DHT22;17103;48.316;11.558;2022-09-09T13:47:47;24.60;45.70
30288;DHT22;17103;48.316;11.558;2022-09-09T13:50:28;24.60;45.90
30288;DHT22;17103;48.316;11.558;2022-09-09T13:52:56;24.60;45.50
30288;DHT22;17103;48.316;11.558;2022-09-09T13:55:28;24.60;45.10
30288;DHT22;17103;48.316;11.558;2022-09-09T13:58:02;24.60;43.60
30288;DHT22;17103;48.316;11.558;2022-09-09T14:00:33;24.60;44.10
30288;DHT22;17103;48.316;11.558;2022-09-09T14:02:59;24.60;44.50
30288;DHT22;17103;48.316;11.558;2022-09-09T14:05:29;24.60;44.40
30288;DHT22;17103;48.316;11.558;2022-09-09T14:07:56;24.50;44.30
30288;DHT22;17103;48.316;11.558;2022-09-09T14:10:22;24.50;44.00
30288;DHT22;17103;48.316;11.558;2022-09-09T14:12:48;24.50;44.30
30288;DHT22;17103;48.316;11.558;2022-09-09T14:15:14;24.50;44.70
30288;DHT22;17103;48.316;11.558;2022-09-09T14:17:40;24.50;44.40
30288;DHT22;17103;48.316;11.558;2022-09-09T14:20:07;24.50;44.80
30288;DHT22;17103;48.316;11.558;2022-09-09T14:22:34;24.50;44.90
30288;DHT22;17103;48.316;11.558;2022-09-09T14:25:00;24.50;45.00
30288;DHT22;17103;48.316;11.558;2022-09-09T14:27:26;24.50;44.80
30288;DHT22;17103;48.316;11.558;2022-09-09T14:29:52;24.60;44.40
30288;DHT22;17103;48.316;11.558;2022-09-09T14:32:18;24.60;44.40
30288;DHT22;17103;48.316;11.558;2022-09-09T14:34:44;24.50;44.40
30288;DHT22;17103;48.316;11.558;2022-09-09T14:37:11;24.50;44.70
30288;DHT22;17103;48.316;11.558;2022-09-09T14:39:37;24.50;45.00
30288;DHT22;17103;48.316;11.558;2022-09-09T14:42:02;24.40;44.90
30288;DHT22;17103;48.316;11.558;2022-09-09T14:44:28;24.30;45.10
30288;DHT22;17103;48.316;11.558;2022-09-09T14:46:54;24.20;45.00
30288;DHT22;17103;48.316;11.558;2022-09-09T14:49:20;24.10;45.00
30288;DHT22;17103;48.316;11.558;2022-09-09T14:51:46;24.00;45.10
30288;DHT22;17103;48.316;11.558;2022-09-09T14:54:11;24.10;45.20
30288;DHT22;17103;48.316;11.558;2022-09-09T14:56:37;24.00;45.20
30288;DHT22;17103;48.316;11.558;2022-09-09T14:59:03;24.00;45.20
30288;DHT22;17103;48.316;11.558;2022-09-09T15:01:31;23.90;45.30
30288;DHT22;17103;48.316;11.558;2022-09-09T15:03:59;23.90;45.20
30288;DHT22;17103;48.316;11.558;2022-09-09T15:06:27;23.80;45.00
30288;DHT22;17103;48.316;11.558;2022-09-09T15:08:54;23.80;45.00
30288;DHT22;17103;48.316;11.558;2022-09-09T15:11:23;23.70;44.90
30288;DHT22;17103;48.316;11.558;2022-09-09T15:13:51;23.70;45.00
30288;DHT22;17103;48.316;11.558;2022-09-09T15:16:21;23.60;45.10
30288;DHT22;17103;48.316;11.558;2022-09-09T15:18:52;23.60;45.20
30288;DHT22;17103;48.316;11.558;2022-09-09T15:21:20;23.60;45.50
30288;DHT22;17103;48.316;11.558;2022-09-09T15:23:46;23.60;45.40
30288;DHT22;17103;48.316;11.558;2022-09-09T15:26:17;23.60;45.80
30288;DHT22;17103;48.316;11.558;2022-09-09T15:28:44;23.60;46.00
30288;DHT22;17103;48.316;11.558;2022-09-09T15:31:19;23.70;45.60
30288;DHT22;17103;48.316;11.558;2022-09-09T15:33:56;23.90;45.80
30288;DHT22;17103;48.316;11.558;2022-09-09T15:36:39;23.90;46.10
30288;DHT22;17103;48.316;11.558;2022-09-09T15:39:13;24.00;46.00
30288;DHT22;17103;48.316;11.558;2022-09-09T15:41:41;24.10;45.30
30288;DHT22;17103;48.316;11.558;2022-09-09T15:44:08;24.20;46.10
30288;DHT22;17103;48.316;11.558;2022-09-09T15:46:44;24.40;46.40
30288;DHT22;17103;48.316;11.558;2022-09-09T15:49:21;24.50;45.90
30288;DHT22;17103;48.316;11.558;2022-09-09T15:51:55;24.70;45.50
30288;DHT22;17103;48.316;11.558;2022-09-09T15:54:24;24.80;45.20
30288;DHT22;17103;48.316;11.558;2022-09-09T15:56:55;25.00;46.50
30288;DHT22;17103;48.316;11.558;2022-09-09T15:59:23;25.00;44.80
30288;DHT22;17103;48.316;11.558;2022-09-09T16:01:49;25.30;44.50
30288;DHT22;17103;48.316;11.558;2022-09-09T16:04:17;25.40;45.00
30288;DHT22;17103;48.316;11.558;2022-09-09T16:06:52;25.50;45.00
30288;DHT22;17103;48.316;11.558;2022-09-09T16:09:19;25.60;44.20
30288;DHT22;17103;48.316;11.558;2022-09-09T16:11:45;25.70;43.70
30288;DHT22;17103;48.316;11.558;2022-09-09T16:14:12;25.80;43.50
30288;DHT22;17103;48.316;11.558;2022-09-09T16:16:38;25.90;43.40
30288;DHT22;17103;48.316;11.558;2022-09-09T16:19:06;25.90;43.30
30288;DHT22;17103;48.316;11.558;2022-09-09T16:21:41;26.00;42.70
30288;DHT22;17103;48.316;11.558;2022-09-09T16:24:09;26.10;42.70
30288;DHT22;17103;48.316;11.558;2022-09-09T16:26:36;26.10;42.80
30288;DHT22;17103;48.316;11.558;2022-09-09T16:29:02;26.10;42.20
30288;DHT22;17103;48.316;11.558;2022-09-09T16:31:30;26.20;42.50
30288;DHT22;17103;48.316;11.558;2022-09-09T16:33:57;26.20;43.10
30288;DHT22;17103;48.316;11.558;2022-09-09T16:36:27;26.30;42.90
30288;DHT22;17103;48.316;11.558;2022-09-09T16:38:54;26.40;42.30
30288;DHT22;17103;48.316;11.558;2022-09-09T16:41:25;26.40;42.80
30288;DHT22;17103;48.316;11.558;2022-09-09T16:43:55;26.50;42.40
30288;DHT22;17103;48.316;11.558;2022-09-09T16:46:22;26.60;42.50
30288;DHT22;17103;48.316;11.558;2022-09-09T16:48:51;26.70;41.90
30288;DHT22;17103;48.316;11.558;2022-09-09T16:51:49;26.80;41.10
30288;DHT22;17103;48.316;11.558;2022-09-09T16:54:16;26.80;39.20
30288;DHT22;17103;48.316;11.558;2022-09-09T16:56:44;26.80;40.60
30288;DHT22;17103;48.316;11.558;2022-09-09T16:59:12;26.80;40.30
30288;DHT22;17103;48.316;11.558;2022-09-09T17:01:39;26.80;40.20
30288;DHT22;17103;48.316;11.558;2022-09-09T17:04:19;26.70;40.80
30288;DHT22;17103;48.316;11.558;2022-09-09T17:06:51;26.80;40.80
30288;DHT22;17103;48.316;11.558;2022-09-09T17:09:18;26.70;40.50
30288;DHT22;17103;48.316;11.558;2022-09-09T17:11:45;26.70;40.00
30288;DHT22;17103;48.316;11.558;2022-09-09T17:14:15;26.70;40.00
30288;DHT22;17103;48.316;11.558;2022-09-09T17:16:42;26.70;39.30
30288;DHT22;17103;48.316;11.558;2022-09-09T17:19:08;26.60;39.40